Palm Springs, California
Current Conditions -  °F | °C
As of 12:53 PM on Thursday 23 Oct 2014 (Local Time) from KPSP Reporting Station
Few Clouds Few Clouds  
Wind Chill: 93°   Ceiling: Unl
Heat Index: 93°   Visibility: 10mi
Dew Point: 35°   Wind: 7mph
Humidity: 13%   Direction: 130°SE
Pressure: 29.96"   Gusts: NA
Location:  33.82°N, 116.51°W
Report Text: KPSP 231953Z 13006KT 10SM FEW250 34/02 A2996 RMK AO2 SLP141 T03390017 $
Loading
Personal Weather Stations






























Interactive Weather Map New forecast layout! Learn more

10-Day Weather Forecast

Advertisements
Track Severe Weather on mobile